sensor_id;sensor_type;location;lat;lon;timestamp;pressure;altitude;pressure_sealevel;temperature;humidity
43488;BME280;29078;41.932;25.554;2022-12-29T00:01:51;100732.75;;;7.43;66.82
43488;BME280;29078;41.932;25.554;2022-12-29T00:04:17;100710.41;;;7.27;66.41
43488;BME280;29078;41.932;25.554;2022-12-29T00:06:43;100732.75;;;7.43;66.31
43488;BME280;29078;41.932;25.554;2022-12-29T00:09:11;100677.53;;;7.12;66.31
43488;BME280;29078;41.932;25.554;2022-12-29T00:11:38;100685.41;;;7.12;66.93
43488;BME280;29078;41.932;25.554;2022-12-29T00:14:04;100761.75;;;7.52;66.48
43488;BME280;29078;41.932;25.554;2022-12-29T00:16:48;100698.94;;;7.08;66.48
43488;BME280;29078;41.932;25.554;2022-12-29T00:19:13;100712.69;;;7.00;66.67
43488;BME280;29078;41.932;25.554;2022-12-29T00:21:58;100707.91;;;7.26;66.32
43488;BME280;29078;41.932;25.554;2022-12-29T00:24:43;100758.63;;;7.58;66.29
43488;BME280;29078;41.932;25.554;2022-12-29T00:27:29;100775.28;;;7.69;66.62
43488;BME280;29078;41.932;25.554;2022-12-29T00:30:17;100732.66;;;7.44;66.31
43488;BME280;29078;41.932;25.554;2022-12-29T00:33:15;100728.47;;;7.42;66.21
43488;BME280;29078;41.932;25.554;2022-12-29T00:36:32;100739.31;;;7.48;66.75
43488;BME280;29078;41.932;25.554;2022-12-29T00:39:03;100756.50;;;7.52;66.88
43488;BME280;29078;41.932;25.554;2022-12-29T00:41:48;100687.22;;;7.12;66.97
43488;BME280;29078;41.932;25.554;2022-12-29T00:44:32;100784.75;;;7.60;67.08
43488;BME280;29078;41.932;25.554;2022-12-29T00:46:57;100768.75;;;7.63;67.05
43488;BME280;29078;41.932;25.554;2022-12-29T00:49:27;100702.38;;;7.29;66.45
43488;BME280;29078;41.932;25.554;2022-12-29T00:52:07;100720.59;;;7.42;66.51
43488;BME280;29078;41.932;25.554;2022-12-29T00:54:34;100758.81;;;7.67;66.53
43488;BME280;29078;41.932;25.554;2022-12-29T00:57:01;100762.25;;;7.67;66.72
43488;BME280;29078;41.932;25.554;2022-12-29T00:59:27;100758.81;;;7.67;66.62
43488;BME280;29078;41.932;25.554;2022-12-29T01:01:53;100760.47;;;7.68;66.78
43488;BME280;29078;41.932;25.554;2022-12-29T01:04:20;100707.84;;;7.37;66.67
43488;BME280;29078;41.932;25.554;2022-12-29T01:06:47;100758.41;;;7.71;66.93
43488;BME280;29078;41.932;25.554;2022-12-29T01:09:13;100733.56;;;7.54;67.02
43488;BME280;29078;41.932;25.554;2022-12-29T01:11:57;100760.22;;;7.71;66.68
43488;BME280;29078;41.932;25.554;2022-12-29T01:14:23;100630.00;;;6.94;67.05
43488;BME280;29078;41.932;25.554;2022-12-29T01:16:49;100638.34;;;6.99;66.82
43488;BME280;29078;41.932;25.554;2022-12-29T01:19:17;100747.72;;;7.63;66.80
43488;BME280;29078;41.932;25.554;2022-12-29T01:21:42;100724.00;;;7.53;66.82
43488;BME280;29078;41.932;25.554;2022-12-29T01:24:08;100753.28;;;7.70;67.01
43488;BME280;29078;41.932;25.554;2022-12-29T01:26:33;100556.28;;;6.45;67.04
43488;BME280;29078;41.932;25.554;2022-12-29T01:28:59;100742.66;;;7.50;67.04
43488;BME280;29078;41.932;25.554;2022-12-29T01:31:24;100720.59;;;7.42;67.36
43488;BME280;29078;41.932;25.554;2022-12-29T01:33:50;100689.66;;;7.24;67.69
43488;BME280;29078;41.932;25.554;2022-12-29T01:36:17;100756.69;;;7.60;67.74
43488;BME280;29078;41.932;25.554;2022-12-29T01:38:43;100684.66;;;7.21;67.65
43488;BME280;29078;41.932;25.554;2022-12-29T01:41:10;100674.00;;;7.02;67.97
43488;BME280;29078;41.932;25.554;2022-12-29T01:46:39;100742.34;;;7.44;68.02
43488;BME280;29078;41.932;25.554;2022-12-29T01:49:21;100741.38;;;7.45;68.10
43488;BME280;29078;41.932;25.554;2022-12-29T01:51:53;100691.25;;;7.16;67.75
43488;BME280;29078;41.932;25.554;2022-12-29T01:54:28;100740.53;;;7.44;68.13
43488;BME280;29078;41.932;25.554;2022-12-29T01:56:58;100733.81;;;7.51;68.49
43488;BME280;29078;41.932;25.554;2022-12-29T01:59:29;100739.91;;;7.52;68.13
43488;BME280;29078;41.932;25.554;2022-12-29T02:01:55;100589.97;;;6.60;68.34
43488;BME280;29078;41.932;25.554;2022-12-29T02:04:22;100735.88;;;7.48;68.11
43488;BME280;29078;41.932;25.554;2022-12-29T02:07:11;100728.56;;;7.51;67.84
43488;BME280;29078;41.932;25.554;2022-12-29T02:09:39;100739.47;;;7.47;68.47
43488;BME280;29078;41.932;25.554;2022-12-29T02:12:06;100623.13;;;6.61;68.61
43488;BME280;29078;41.932;25.554;2022-12-29T02:14:32;100732.41;;;7.47;68.73
43488;BME280;29078;41.932;25.554;2022-12-29T02:19:57;100733.81;;;7.51;68.68
43488;BME280;29078;41.932;25.554;2022-12-29T02:36:16;100629.63;;;6.78;68.35
43488;BME280;29078;41.932;25.554;2022-12-29T02:41:55;100717.91;;;7.32;68.56
43488;BME280;29078;41.932;25.554;2022-12-29T02:47:15;100724.16;;;7.41;68.88
43488;BME280;29078;41.932;25.554;2022-12-29T02:50:23;100698.09;;;7.28;69.27
43488;BME280;29078;41.932;25.554;2022-12-29T02:52:57;100691.44;;;7.24;68.86
43488;BME280;29078;41.932;25.554;2022-12-29T02:55:24;100578.91;;;6.57;68.75
43488;BME280;29078;41.932;25.554;2022-12-29T02:58:17;100721.19;;;7.45;68.99
43488;BME280;29078;41.932;25.554;2022-12-29T03:11:40;100704.38;;;7.37;69.26
43488;BME280;29078;41.932;25.554;2022-12-29T03:15:03;100705.91;;;7.39;68.81
43488;BME280;29078;41.932;25.554;2022-12-29T03:18:06;100706.88;;;7.38;69.09
43488;BME280;29078;41.932;25.554;2022-12-29T03:20:45;100640.59;;;7.04;68.62
43488;BME280;29078;41.932;25.554;2022-12-29T03:23:15;100616.31;;;6.91;68.66
43488;BME280;29078;41.932;25.554;2022-12-29T03:25:46;100640.06;;;7.10;68.95
43488;BME280;29078;41.932;25.554;2022-12-29T03:28:17;100708.50;;;7.50;68.70
43488;BME280;29078;41.932;25.554;2022-12-29T03:30:45;100702.66;;;7.47;69.21
43488;BME280;29078;41.932;25.554;2022-12-29T03:33:14;100614.91;;;6.87;69.16
43488;BME280;29078;41.932;25.554;2022-12-29T03:35:44;100687.88;;;7.46;68.75
43488;BME280;29078;41.932;25.554;2022-12-29T03:38:17;100616.06;;;6.94;68.71
43488;BME280;29078;41.932;25.554;2022-12-29T03:40:48;100636.94;;;7.16;68.77
43488;BME280;29078;41.932;25.554;2022-12-29T03:43:15;100686.06;;;7.46;68.72
43488;BME280;29078;41.932;25.554;2022-12-29T03:45:41;100700.28;;;7.64;68.76
43488;BME280;29078;41.932;25.554;2022-12-29T03:48:06;100685.94;;;7.48;68.56
43488;BME280;29078;41.932;25.554;2022-12-29T03:50:31;100668.78;;;7.44;68.25
43488;BME280;29078;41.932;25.554;2022-12-29T03:52:57;100689.13;;;7.51;68.50
43488;BME280;29078;41.932;25.554;2022-12-29T03:55:22;100676.84;;;7.52;68.11
43488;BME280;29078;41.932;25.554;2022-12-29T03:57:48;100639.91;;;7.32;68.10
43488;BME280;29078;41.932;25.554;2022-12-29T04:00:14;100683.81;;;7.62;67.90
43488;BME280;29078;41.932;25.554;2022-12-29T04:02:39;100571.81;;;6.89;67.64
43488;BME280;29078;41.932;25.554;2022-12-29T04:05:05;100674.06;;;7.53;68.23
43488;BME280;29078;41.932;25.554;2022-12-29T04:07:31;100705.00;;;7.71;68.30
43488;BME280;29078;41.932;25.554;2022-12-29T04:09:56;100703.88;;;7.63;68.14
43488;BME280;29078;41.932;25.554;2022-12-29T04:12:22;100662.34;;;7.37;68.41
43488;BME280;29078;41.932;25.554;2022-12-29T04:14:47;100711.44;;;7.57;68.48
43488;BME280;29078;41.932;25.554;2022-12-29T04:17:12;100651.06;;;7.25;68.33
43488;BME280;29078;41.932;25.554;2022-12-29T04:19:38;100657.09;;;7.37;68.23
43488;BME280;29078;41.932;25.554;2022-12-29T04:22:03;100708.84;;;7.67;67.97
43488;BME280;29078;41.932;25.554;2022-12-29T04:24:28;100703.47;;;7.68;67.88
43488;BME280;29078;41.932;25.554;2022-12-29T04:26:54;100672.66;;;7.49;68.05
43488;BME280;29078;41.932;25.554;2022-12-29T04:29:19;100705.53;;;7.64;67.62
43488;BME280;29078;41.932;25.554;2022-12-29T04:31:45;100589.34;;;6.89;67.93
43488;BME280;29078;41.932;25.554;2022-12-29T04:34:10;100712.97;;;7.59;68.48
43488;BME280;29078;41.932;25.554;2022-12-29T04:36:35;100665.22;;;7.33;67.81
43488;BME280;29078;41.932;25.554;2022-12-29T04:39:01;100678.66;;;7.40;68.34
43488;BME280;29078;41.932;25.554;2022-12-29T04:41:27;100607.97;;;7.07;67.99
43488;BME280;29078;41.932;25.554;2022-12-29T04:43:52;100667.94;;;7.43;68.37
43488;BME280;29078;41.932;25.554;2022-12-29T04:46:18;100710.78;;;7.64;68.22
43488;BME280;29078;41.932;25.554;2022-12-29T04:48:43;100709.50;;;7.59;68.18
43488;BME280;29078;41.932;25.554;2022-12-29T04:51:08;100618.44;;;6.97;68.68
43488;BME280;29078;41.932;25.554;2022-12-29T04:53:34;100700.41;;;7.42;68.58
43488;BME280;29078;41.932;25.554;2022-12-29T04:55:59;100643.06;;;7.06;68.44
43488;BME280;29078;41.932;25.554;2022-12-29T04:58:25;100637.25;;;7.02;68.30
43488;BME280;29078;41.932;25.554;2022-12-29T05:00:51;100728.03;;;7.57;68.41
43488;BME280;29078;41.932;25.554;2022-12-29T05:03:16;100728.44;;;7.53;68.19
43488;BME280;29078;41.932;25.554;2022-12-29T05:05:42;100726.88;;;7.50;68.77
43488;BME280;29078;41.932;25.554;2022-12-29T05:08:07;100703.53;;;7.36;68.66
43488;BME280;29078;41.932;25.554;2022-12-29T05:10:33;100727.41;;;7.44;68.70
43488;BME280;29078;41.932;25.554;2022-12-29T05:12:58;100669.78;;;7.11;68.92
43488;BME280;29078;41.932;25.554;2022-12-29T05:15:23;100727.63;;;7.41;69.30
43488;BME280;29078;41.932;25.554;2022-12-29T05:18:14;100725.84;;;7.42;68.82
43488;BME280;29078;41.932;25.554;2022-12-29T05:20:39;100664.66;;;7.09;68.73
43488;BME280;29078;41.932;25.554;2022-12-29T05:23:05;100552.13;;;6.42;68.80
43488;BME280;29078;41.932;25.554;2022-12-29T05:25:30;100684.13;;;7.27;68.84
43488;BME280;29078;41.932;25.554;2022-12-29T05:27:55;100578.13;;;6.66;68.81
43488;BME280;29078;41.932;25.554;2022-12-29T05:30:21;100643.34;;;7.03;68.09
43488;BME280;29078;41.932;25.554;2022-12-29T05:32:46;100527.03;;;6.28;68.31
43488;BME280;29078;41.932;25.554;2022-12-29T05:35:11;100591.72;;;6.71;68.50
43488;BME280;29078;41.932;25.554;2022-12-29T05:37:37;100707.91;;;7.47;68.38
43488;BME280;29078;41.932;25.554;2022-12-29T05:40:03;100739.56;;;7.66;68.15
43488;BME280;29078;41.932;25.554;2022-12-29T05:42:29;100728.75;;;7.59;68.18
43488;BME280;29078;41.932;25.554;2022-12-29T05:44:54;100745.91;;;7.63;68.06
43488;BME280;29078;41.932;25.554;2022-12-29T05:47:20;100669.28;;;7.17;68.18
43488;BME280;29078;41.932;25.554;2022-12-29T05:49:45;100725.41;;;7.57;68.42
43488;BME280;29078;41.932;25.554;2022-12-29T05:52:44;100736.38;;;7.62;68.31
43488;BME280;29078;41.932;25.554;2022-12-29T05:55:10;100562.69;;;6.52;68.43
43488;BME280;29078;41.932;25.554;2022-12-29T05:57:36;100745.44;;;7.38;67.79
43488;BME280;29078;41.932;25.554;2022-12-29T06:00:05;100707.78;;;7.48;68.10
43488;BME280;29078;41.932;25.554;2022-12-29T06:02:31;100752.00;;;7.64;68.06
43488;BME280;29078;41.932;25.554;2022-12-29T06:04:56;100629.00;;;6.86;68.05
43488;BME280;29078;41.932;25.554;2022-12-29T06:07:22;100749.50;;;7.62;68.04
43488;BME280;29078;41.932;25.554;2022-12-29T06:09:47;100754.75;;;7.62;68.43
43488;BME280;29078;41.932;25.554;2022-12-29T06:12:12;100746.44;;;7.57;68.52
43488;BME280;29078;41.932;25.554;2022-12-29T06:14:38;100741.88;;;7.59;67.89
43488;BME280;29078;41.932;25.554;2022-12-29T06:17:03;100712.69;;;7.42;68.17
43488;BME280;29078;41.932;25.554;2022-12-29T06:19:29;100768.88;;;7.61;68.02
43488;BME280;29078;41.932;25.554;2022-12-29T06:21:54;100633.72;;;6.92;68.28
43488;BME280;29078;41.932;25.554;2022-12-29T06:24:21;100757.25;;;7.64;68.51
43488;BME280;29078;41.932;25.554;2022-12-29T06:26:46;100607.47;;;6.71;68.20
43488;BME280;29078;41.932;25.554;2022-12-29T06:29:12;100764.88;;;7.67;68.44
43488;BME280;29078;41.932;25.554;2022-12-29T06:31:42;100657.16;;;7.05;67.70
43488;BME280;29078;41.932;25.554;2022-12-29T06:34:08;100754.81;;;7.72;68.00
43488;BME280;29078;41.932;25.554;2022-12-29T06:36:34;100742.13;;;7.56;67.96
43488;BME280;29078;41.932;25.554;2022-12-29T06:38:59;100704.72;;;7.43;67.90
43488;BME280;29078;41.932;25.554;2022-12-29T06:41:24;100564.03;;;6.46;68.08
43488;BME280;29078;41.932;25.554;2022-12-29T06:43:50;100662.75;;;7.11;67.95
43488;BME280;29078;41.932;25.554;2022-12-29T06:46:15;100544.84;;;6.46;67.50
43488;BME280;29078;41.932;25.554;2022-12-29T06:48:41;100757.19;;;7.75;67.82
43488;BME280;29078;41.932;25.554;2022-12-29T06:51:07;100687.19;;;7.32;68.15
43488;BME280;29078;41.932;25.554;2022-12-29T06:53:33;100735.53;;;7.62;67.55
43488;BME280;29078;41.932;25.554;2022-12-29T06:55:58;100646.97;;;7.11;67.81
43488;BME280;29078;41.932;25.554;2022-12-29T06:58:23;100768.47;;;7.87;67.66
43488;BME280;29078;41.932;25.554;2022-12-29T07:00:49;100565.13;;;6.64;67.35
43488;BME280;29078;41.932;25.554;2022-12-29T07:03:14;100745.00;;;7.74;67.36
43488;BME280;29078;41.932;25.554;2022-12-29T07:05:39;100735.41;;;7.63;67.18
43488;BME280;29078;41.932;25.554;2022-12-29T07:08:05;100655.56;;;7.13;67.54
43488;BME280;29078;41.932;25.554;2022-12-29T07:10:31;100770.38;;;7.85;67.39
43488;BME280;29078;41.932;25.554;2022-12-29T07:12:56;100764.69;;;7.80;67.77
43488;BME280;29078;41.932;25.554;2022-12-29T07:15:22;100736.28;;;7.74;67.28
43488;BME280;29078;41.932;25.554;2022-12-29T07:17:47;100770.69;;;7.91;67.50
43488;BME280;29078;41.932;25.554;2022-12-29T07:20:14;100478.44;;;6.24;67.45
43488;BME280;29078;41.932;25.554;2022-12-29T07:22:40;100702.06;;;7.64;67.25
43488;BME280;29078;41.932;25.554;2022-12-29T07:25:05;100726.25;;;7.88;67.37
43488;BME280;29078;41.932;25.554;2022-12-29T07:27:31;100705.13;;;7.69;66.85
43488;BME280;29078;41.932;25.554;2022-12-29T07:29:56;100694.75;;;7.68;66.78
43488;BME280;29078;41.932;25.554;2022-12-29T07:32:22;100773.16;;;8.14;66.95
43488;BME280;29078;41.932;25.554;2022-12-29T07:34:47;100600.81;;;7.09;66.95
43488;BME280;29078;41.932;25.554;2022-12-29T07:37:15;100760.38;;;8.09;66.94
43488;BME280;29078;41.932;25.554;2022-12-29T07:39:41;100771.69;;;8.21;66.80
43488;BME280;29078;41.932;25.554;2022-12-29T07:42:06;100749.88;;;8.09;66.73
43488;BME280;29078;41.932;25.554;2022-12-29T07:44:32;100664.31;;;7.65;66.62
43488;BME280;29078;41.932;25.554;2022-12-29T07:46:57;100694.66;;;7.79;66.90
43488;BME280;29078;41.932;25.554;2022-12-29T07:49:23;100687.75;;;7.78;66.83
43488;BME280;29078;41.932;25.554;2022-12-29T07:51:48;100772.41;;;8.33;66.42
43488;BME280;29078;41.932;25.554;2022-12-29T07:54:14;100500.84;;;6.70;66.29
43488;BME280;29078;41.932;25.554;2022-12-29T07:56:39;100712.19;;;7.99;66.33
43488;BME280;29078;41.932;25.554;2022-12-29T07:59:05;100775.81;;;8.44;66.27
43488;BME280;29078;41.932;25.554;2022-12-29T08:01:31;100675.59;;;7.86;66.11
43488;BME280;29078;41.932;25.554;2022-12-29T08:03:56;100665.91;;;7.87;66.29
43488;BME280;29078;41.932;25.554;2022-12-29T08:06:21;100782.50;;;8.58;65.77
43488;BME280;29078;41.932;25.554;2022-12-29T08:08:47;100779.59;;;8.61;66.02
43488;BME280;29078;41.932;25.554;2022-12-29T08:11:12;100730.31;;;8.33;65.86
43488;BME280;29078;41.932;25.554;2022-12-29T08:13:38;100747.56;;;8.46;65.80
43488;BME280;29078;41.932;25.554;2022-12-29T08:16:04;100790.84;;;8.73;65.78
43488;BME280;29078;41.932;25.554;2022-12-29T08:18:29;100787.66;;;8.79;65.38
43488;BME280;29078;41.932;25.554;2022-12-29T08:20:54;100792.53;;;8.83;65.33
43488;BME280;29078;41.932;25.554;2022-12-29T08:23:20;100711.25;;;8.40;65.28
43488;BME280;29078;41.932;25.554;2022-12-29T08:25:45;100758.81;;;8.68;64.99
43488;BME280;29078;41.932;25.554;2022-12-29T08:28:11;100717.78;;;8.46;65.14
43488;BME280;29078;41.932;25.554;2022-12-29T08:30:36;100770.75;;;8.72;64.88
43488;BME280;29078;41.932;25.554;2022-12-29T08:33:01;100667.66;;;8.17;64.75
43488;BME280;29078;41.932;25.554;2022-12-29T08:35:27;100753.16;;;8.72;64.58
43488;BME280;29078;41.932;25.554;2022-12-29T08:37:52;100764.53;;;8.82;64.44
43488;BME280;29078;41.932;25.554;2022-12-29T08:40:18;100722.91;;;8.57;64.16
43488;BME280;29078;41.932;25.554;2022-12-29T08:42:43;100792.16;;;8.98;64.13
43488;BME280;29078;41.932;25.554;2022-12-29T08:45:09;100700.31;;;8.45;64.18
43488;BME280;29078;41.932;25.554;2022-12-29T08:47:35;100795.47;;;9.00;64.09
43488;BME280;29078;41.932;25.554;2022-12-29T08:50:00;100737.47;;;8.71;63.94
43488;BME280;29078;41.932;25.554;2022-12-29T08:52:26;100721.25;;;8.66;64.06
43488;BME280;29078;41.932;25.554;2022-12-29T08:54:51;100765.25;;;8.94;63.93
43488;BME280;29078;41.932;25.554;2022-12-29T08:57:17;100706.03;;;8.59;63.52
43488;BME280;29078;41.932;25.554;2022-12-29T08:59:42;100660.38;;;8.30;63.70
43488;BME280;29078;41.932;25.554;2022-12-29T09:02:10;100768.72;;;9.04;63.62
43488;BME280;29078;41.932;25.554;2022-12-29T09:04:36;100732.22;;;8.90;63.21
43488;BME280;29078;41.932;25.554;2022-12-29T09:07:01;100766.09;;;9.14;63.03
43488;BME280;29078;41.932;25.554;2022-12-29T09:09:27;100747.25;;;8.99;63.21
43488;BME280;29078;41.932;25.554;2022-12-29T09:11:52;100742.25;;;8.96;63.29
43488;BME280;29078;41.932;25.554;2022-12-29T09:14:17;100780.94;;;9.05;63.02
43488;BME280;29078;41.932;25.554;2022-12-29T09:16:43;100642.22;;;8.27;63.39
43488;BME280;29078;41.932;25.554;2022-12-29T09:19:27;100608.25;;;8.05;63.63
43488;BME280;29078;41.932;25.554;2022-12-29T09:21:52;100727.94;;;8.79;63.54
43488;BME280;29078;41.932;25.554;2022-12-29T09:24:18;100668.59;;;8.46;63.73
43488;BME280;29078;41.932;25.554;2022-12-29T09:26:43;100745.94;;;8.74;63.61
43488;BME280;29078;41.932;25.554;2022-12-29T09:29:09;100719.88;;;8.81;63.68
43488;BME280;29078;41.932;25.554;2022-12-29T09:31:34;100674.44;;;8.59;63.60
43488;BME280;29078;41.932;25.554;2022-12-29T09:34:00;100726.56;;;8.95;63.55
43488;BME280;29078;41.932;25.554;2022-12-29T09:36:25;100699.78;;;8.80;63.39
43488;BME280;29078;41.932;25.554;2022-12-29T09:38:53;100716.59;;;8.98;63.46
43488;BME280;29078;41.932;25.554;2022-12-29T09:41:28;100686.91;;;8.86;63.35
43488;BME280;29078;41.932;25.554;2022-12-29T09:44:03;100717.28;;;9.10;63.33
43488;BME280;29078;41.932;25.554;2022-12-29T09:46:49;100725.31;;;9.18;63.24
43488;BME280;29078;41.932;25.554;2022-12-29T09:52:14;100551.28;;;8.34;62.62
43488;BME280;29078;41.932;25.554;2022-12-29T09:55:14;100666.53;;;9.08;62.27
43488;BME280;29078;41.932;25.554;2022-12-29T09:57:58;100590.19;;;8.69;62.50
43488;BME280;29078;41.932;25.554;2022-12-29T10:03:24;100672.72;;;9.36;61.83
43488;BME280;29078;41.932;25.554;2022-12-29T10:06:03;100685.44;;;9.50;62.15
43488;BME280;29078;41.932;25.554;2022-12-29T10:11:30;100675.44;;;9.53;61.90
43488;BME280;29078;41.932;25.554;2022-12-29T10:14:12;100670.28;;;9.62;61.98
43488;BME280;29078;41.932;25.554;2022-12-29T10:22:37;100660.06;;;9.86;61.62
43488;BME280;29078;41.932;25.554;2022-12-29T10:25:15;100610.75;;;9.69;61.38
43488;BME280;29078;41.932;25.554;2022-12-29T10:27:43;100651.44;;;9.94;61.40
43488;BME280;29078;41.932;25.554;2022-12-29T10:30:12;100614.31;;;9.77;60.71
43488;BME280;29078;41.932;25.554;2022-12-29T10:32:55;100636.38;;;10.04;61.00
43488;BME280;29078;41.932;25.554;2022-12-29T10:35:31;100472.91;;;8.94;60.44
43488;BME280;29078;41.932;25.554;2022-12-29T10:38:26;100634.13;;;10.09;60.58
43488;BME280;29078;41.932;25.554;2022-12-29T10:46:11;100603.50;;;9.98;60.17
43488;BME280;29078;41.932;25.554;2022-12-29T10:48:38;100489.78;;;9.29;60.44
43488;BME280;29078;41.932;25.554;2022-12-29T10:51:07;100616.84;;;10.24;60.37
43488;BME280;29078;41.932;25.554;2022-12-29T10:53:47;100621.81;;;10.27;60.36
43488;BME280;29078;41.932;25.554;2022-12-29T10:56:43;100612.78;;;10.30;60.21
43488;BME280;29078;41.932;25.554;2022-12-29T10:59:31;100609.00;;;10.32;60.07
43488;BME280;29078;41.932;25.554;2022-12-29T11:07:21;100574.34;;;10.17;60.43
43488;BME280;29078;41.932;25.554;2022-12-29T11:09:47;100514.53;;;9.73;59.91
43488;BME280;29078;41.932;25.554;2022-12-29T11:12:25;100504.06;;;9.81;60.07
43488;BME280;29078;41.932;25.554;2022-12-29T11:17:46;100593.53;;;10.37;59.95
43488;BME280;29078;41.932;25.554;2022-12-29T11:20:32;100584.78;;;10.37;59.96
43488;BME280;29078;41.932;25.554;2022-12-29T11:22:59;100532.72;;;10.11;59.92
43488;BME280;29078;41.932;25.554;2022-12-29T11:25:25;100489.00;;;9.91;60.06
43488;BME280;29078;41.932;25.554;2022-12-29T11:28:00;100576.97;;;10.45;59.69
43488;BME280;29078;41.932;25.554;2022-12-29T11:30:30;100571.38;;;10.48;59.38
43488;BME280;29078;41.932;25.554;2022-12-29T11:32:57;100559.47;;;10.44;59.91
43488;BME280;29078;41.932;25.554;2022-12-29T11:35:35;100561.97;;;10.45;59.12
43488;BME280;29078;41.932;25.554;2022-12-29T11:38:03;100395.31;;;9.34;59.62
43488;BME280;29078;41.932;25.554;2022-12-29T11:40:29;100557.97;;;10.41;59.48
43488;BME280;29078;41.932;25.554;2022-12-29T11:43:00;100494.97;;;9.93;59.31
43488;BME280;29078;41.932;25.554;2022-12-29T11:45:33;100450.66;;;9.79;59.48
43488;BME280;29078;41.932;25.554;2022-12-29T11:48:13;100549.44;;;10.47;59.74
43488;BME280;29078;41.932;25.554;2022-12-29T11:50:41;100545.19;;;10.37;59.65
43488;BME280;29078;41.932;25.554;2022-12-29T11:55:51;100476.56;;;10.01;59.49
43488;BME280;29078;41.932;25.554;2022-12-29T11:58:17;100518.25;;;10.33;59.13
43488;BME280;29078;41.932;25.554;2022-12-29T12:00:44;100547.00;;;10.54;59.49
43488;BME280;29078;41.932;25.554;2022-12-29T12:03:18;100542.72;;;10.53;58.73
43488;BME280;29078;41.932;25.554;2022-12-29T12:05:53;100399.94;;;9.67;58.83
43488;BME280;29078;41.932;25.554;2022-12-29T12:08:41;100538.41;;;10.52;58.79
43488;BME280;29078;41.932;25.554;2022-12-29T12:11:16;100393.44;;;9.62;58.92
43488;BME280;29078;41.932;25.554;2022-12-29T12:16:22;100532.00;;;10.55;59.32
43488;BME280;29078;41.932;25.554;2022-12-29T12:18:53;100533.72;;;10.64;58.80
43488;BME280;29078;41.932;25.554;2022-12-29T12:21:27;100522.16;;;10.65;58.62
43488;BME280;29078;41.932;25.554;2022-12-29T12:24:29;100516.88;;;10.65;58.46
43488;BME280;29078;41.932;25.554;2022-12-29T12:27:01;100521.84;;;10.68;59.07
43488;BME280;29078;41.932;25.554;2022-12-29T12:29:35;100510.47;;;10.67;58.49
43488;BME280;29078;41.932;25.554;2022-12-29T12:32:23;100516.56;;;10.68;58.75
43488;BME280;29078;41.932;25.554;2022-12-29T12:34:51;100459.81;;;10.28;58.93
43488;BME280;29078;41.932;25.554;2022-12-29T12:37:33;100513.41;;;10.64;58.08
43488;BME280;29078;41.932;25.554;2022-12-29T12:59:06;100520.56;;;10.72;58.96
43488;BME280;29078;41.932;25.554;2022-12-29T13:18:25;100518.44;;;10.75;58.77
43488;BME280;29078;41.932;25.554;2022-12-29T13:21:27;100514.97;;;10.75;58.75
43488;BME280;29078;41.932;25.554;2022-12-29T13:26:48;100527.03;;;10.77;59.02
43488;BME280;29078;41.932;25.554;2022-12-29T13:29:20;100526.97;;;10.69;59.13
43488;BME280;29078;41.932;25.554;2022-12-29T13:31:55;100508.28;;;10.63;58.81
43488;BME280;29078;41.932;25.554;2022-12-29T13:34:30;100528.03;;;10.76;59.17
43488;BME280;29078;41.932;25.554;2022-12-29T13:37:10;100517.47;;;10.76;59.11
43488;BME280;29078;41.932;25.554;2022-12-29T13:39:42;100510.09;;;10.62;58.49
43488;BME280;29078;41.932;25.554;2022-12-29T13:42:09;100388.81;;;9.99;59.02
43488;BME280;29078;41.932;25.554;2022-12-29T13:44:43;100442.84;;;10.31;58.27
43488;BME280;29078;41.932;25.554;2022-12-29T13:50:02;100507.81;;;10.67;59.34
43488;BME280;29078;41.932;25.554;2022-12-29T13:52:32;100520.09;;;10.76;59.12
43488;BME280;29078;41.932;25.554;2022-12-29T13:55:21;100526.38;;;10.75;59.44
43488;BME280;29078;41.932;25.554;2022-12-29T14:06:27;100529.31;;;10.72;58.84
43488;BME280;29078;41.932;25.554;2022-12-29T14:09:04;100408.94;;;10.00;59.12
43488;BME280;29078;41.932;25.554;2022-12-29T14:13:57;100403.75;;;9.91;59.37
43488;BME280;29078;41.932;25.554;2022-12-29T14:16:27;100527.28;;;10.66;59.46
43488;BME280;29078;41.932;25.554;2022-12-29T14:18:54;100429.91;;;10.02;59.92
43488;BME280;29078;41.932;25.554;2022-12-29T14:21:25;100515.63;;;10.51;60.14
43488;BME280;29078;41.932;25.554;2022-12-29T14:24:27;100526.56;;;10.56;59.90
43488;BME280;29078;41.932;25.554;2022-12-29T14:26:46;100458.47;;;10.06;60.08
43488;BME280;29078;41.932;25.554;2022-12-29T14:31:49;100419.31;;;9.76;60.56
43488;BME280;29078;41.932;25.554;2022-12-29T14:36:52;100525.31;;;10.42;60.63
43488;BME280;29078;41.932;25.554;2022-12-29T14:39:38;100516.47;;;10.34;60.15
43488;BME280;29078;41.932;25.554;2022-12-29T14:44:59;100507.28;;;10.20;61.17
43488;BME280;29078;41.932;25.554;2022-12-29T14:47:33;100519.72;;;10.28;60.67
43488;BME280;29078;41.932;25.554;2022-12-29T14:52:31;100522.47;;;10.08;61.49
43488;BME280;29078;41.932;25.554;2022-12-29T14:55:28;100520.50;;;10.10;61.45
43488;BME280;29078;41.932;25.554;2022-12-29T14:57:52;100523.91;;;10.03;60.88
43488;BME280;29078;41.932;25.554;2022-12-29T15:00:30;100535.97;;;10.05;61.25
43488;BME280;29078;41.932;25.554;2022-12-29T15:05:42;100518.41;;;9.96;61.80
43488;BME280;29078;41.932;25.554;2022-12-29T15:08:10;100523.16;;;9.93;61.85
43488;BME280;29078;41.932;25.554;2022-12-29T15:10:42;100524.28;;;9.90;61.96
43488;BME280;29078;41.932;25.554;2022-12-29T15:13:16;100527.22;;;9.87;61.76
43488;BME280;29078;41.932;25.554;2022-12-29T15:15:42;100500.16;;;9.67;62.10
43488;BME280;29078;41.932;25.554;2022-12-29T15:18:28;100499.44;;;9.65;62.59
43488;BME280;29078;41.932;25.554;2022-12-29T15:20:58;100527.28;;;9.77;62.25